createdAt,value
2023-02-11T00:02:47.927Z,34.30
2023-02-11T00:08:41.906Z,35.30
2023-02-11T00:14:36.818Z,32.30
2023-02-11T00:20:30.186Z,36.90
2023-02-11T00:26:25.940Z,34.73
2023-02-11T00:32:20.773Z,32.67
2023-02-11T00:38:15.896Z,37.17
2023-02-11T00:44:09.322Z,34.90
2023-02-11T00:50:05.593Z,35.43
2023-02-11T00:55:59.009Z,39.30
2023-02-11T01:01:52.519Z,36.47
2023-02-11T01:07:48.056Z,39.23
2023-02-11T01:13:43.124Z,44.93
2023-02-11T01:19:37.760Z,42.37
2023-02-11T01:25:32.510Z,37.73
2023-02-11T01:31:25.527Z,36.70
2023-02-11T01:37:19.218Z,42.20
2023-02-11T01:43:16.171Z,40.07
2023-02-11T01:49:13.772Z,40.63
2023-02-11T01:55:29.484Z,37.27
2023-02-11T02:01:26.860Z,42.53
2023-02-11T02:07:28.038Z,42.00
2023-02-11T02:13:21.761Z,41.13
2023-02-11T02:19:58.352Z,42.57
2023-02-11T02:26:28.797Z,38.13
2023-02-11T02:32:40.908Z,43.80
2023-02-11T02:38:39.179Z,42.00
2023-02-11T02:44:33.380Z,45.73
2023-02-11T02:50:31.501Z,42.03
2023-02-11T02:56:33.095Z,37.73
2023-02-11T03:02:31.539Z,33.43
2023-02-11T03:08:31.901Z,35.63
2023-02-11T03:14:28.207Z,43.10
2023-02-11T03:20:23.652Z,35.50
2023-02-11T03:26:24.531Z,40.57
2023-02-11T03:32:24.249Z,34.13
2023-02-11T03:38:21.622Z,42.03
2023-02-11T03:44:18.011Z,35.80
2023-02-11T03:50:13.992Z,40.50
2023-02-11T03:56:10.712Z,39.93
2023-02-11T04:02:05.079Z,37.83
2023-02-11T04:07:58.026Z,30.47
2023-02-11T04:13:51.151Z,30.07
2023-02-11T04:19:45.486Z,40.23
2023-02-11T04:25:38.506Z,34.50
2023-02-11T04:31:31.963Z,32.80
2023-02-11T04:37:26.319Z,29.57
2023-02-11T04:43:19.257Z,35.80
2023-02-11T04:49:15.168Z,29.70
2023-02-11T04:55:10.618Z,23.80
2023-02-11T05:01:07.891Z,28.17
2023-02-11T05:07:01.347Z,37.50
2023-02-11T05:12:56.164Z,29.97
2023-02-11T05:18:52.542Z,27.10
2023-02-11T05:24:46.073Z,26.00
2023-02-11T05:30:40.437Z,32.27
2023-02-11T05:36:33.594Z,22.30
2023-02-11T05:42:26.599Z,22.97
2023-02-11T05:48:21.340Z,25.47
2023-02-11T05:54:14.495Z,21.17
2023-02-11T06:00:08.782Z,25.33
2023-02-11T06:06:11.865Z,24.87
2023-02-11T06:12:05.319Z,22.90
2023-02-11T06:17:59.704Z,23.30
2023-02-11T06:23:54.454Z,20.33
2023-02-11T06:29:47.970Z,17.60
2023-02-11T06:35:41.438Z,19.60
2023-02-11T06:41:35.777Z,19.07
2023-02-11T06:47:29.162Z,18.53
2023-02-11T06:53:22.138Z,21.30
2023-02-11T06:59:19.559Z,18.10
2023-02-11T07:05:12.717Z,19.63
2023-02-11T07:11:11.156Z,18.60
2023-02-11T07:17:05.831Z,17.70
2023-02-11T07:23:00.479Z,19.37
2023-02-11T07:28:54.183Z,15.90
2023-02-11T07:34:49.434Z,20.63
2023-02-11T07:40:42.845Z,16.37
2023-02-11T07:46:36.373Z,18.97
2023-02-11T07:52:32.225Z,16.33
2023-02-11T07:58:25.655Z,18.63
2023-02-11T08:04:19.174Z,17.10
2023-02-11T08:10:13.580Z,18.17
2023-02-11T08:16:08.642Z,21.00
2023-02-11T08:22:01.855Z,19.33
2023-02-11T08:27:56.157Z,19.23
2023-02-11T08:33:49.859Z,24.97
2023-02-11T08:39:43.250Z,19.30
2023-02-11T08:45:38.715Z,23.27
2023-02-11T08:51:32.116Z,23.37
2023-02-11T08:57:25.117Z,24.27
2023-02-11T09:03:19.519Z,25.53
2023-02-11T09:09:14.868Z,28.47
2023-02-11T09:15:08.747Z,25.67
2023-02-11T09:21:06.472Z,24.77
2023-02-11T09:26:59.448Z,23.00
2023-02-11T09:32:52.891Z,18.00
2023-02-11T09:38:47.426Z,21.00
2023-02-11T09:44:40.630Z,22.23
2023-02-11T09:50:36.639Z,23.30
2023-02-11T09:56:31.844Z,17.97
2023-02-11T10:02:31.523Z,18.87
2023-02-11T10:08:30.874Z,17.90
2023-02-11T10:14:56.650Z,22.33
2023-02-11T10:21:00.910Z,19.73
2023-02-11T10:26:54.328Z,22.57
2023-02-11T10:32:53.014Z,26.93
2023-02-11T10:38:46.464Z,19.03
2023-02-11T10:44:43.531Z,23.60
2023-02-11T10:50:38.831Z,19.67
2023-02-11T10:56:35.775Z,22.73
2023-02-11T11:02:34.329Z,15.50
2023-02-11T11:08:43.436Z,18.10
2023-02-11T11:14:36.642Z,14.50
2023-02-11T11:20:32.292Z,14.10
2023-02-11T11:26:29.190Z,14.83
2023-02-11T11:32:25.852Z,14.03
2023-02-11T11:38:18.865Z,14.17
2023-02-11T11:44:25.961Z,15.70
2023-02-11T11:50:30.191Z,18.67
2023-02-11T11:56:25.737Z,15.10
2023-02-11T12:02:44.507Z,11.33
2023-02-11T12:08:48.445Z,12.67
2023-02-11T12:14:50.926Z,16.03
2023-02-11T12:21:00.904Z,17.57
2023-02-11T12:26:59.200Z,14.00
2023-02-11T12:33:06.446Z,11.40
2023-02-11T12:39:12.066Z,10.13
2023-02-11T12:45:20.943Z,10.23
2023-02-11T12:51:23.800Z,5.50
2023-02-11T12:57:22.612Z,4.83
2023-02-11T13:03:23.337Z,9.33
2023-02-11T13:09:21.680Z,5.83
2023-02-11T13:15:17.239Z,12.43
2023-02-11T13:21:27.086Z,10.97
2023-02-11T13:27:30.640Z,10.97
2023-02-11T13:33:36.099Z,5.90
2023-02-11T13:39:29.616Z,6.57
2023-02-11T13:45:31.974Z,13.77
2023-02-11T13:51:40.407Z,7.47
2023-02-11T13:57:38.488Z,8.97
2023-02-11T14:03:52.865Z,17.17
2023-02-11T14:09:47.219Z,12.63
2023-02-11T14:15:41.392Z,16.40
2023-02-11T14:21:40.674Z,16.37
2023-02-11T14:27:45.037Z,9.67
2023-02-11T14:34:09.325Z,8.50
2023-02-11T14:40:11.670Z,13.20
2023-02-11T14:46:06.278Z,10.80
2023-02-11T14:52:05.629Z,7.80
2023-02-11T14:58:15.965Z,11.90
2023-02-11T15:04:25.611Z,6.33
2023-02-11T15:10:29.097Z,6.73
2023-02-11T15:16:26.245Z,8.90
2023-02-11T15:22:23.310Z,9.50
2023-02-11T15:28:23.381Z,14.63
2023-02-11T15:34:18.485Z,9.30
2023-02-11T15:40:13.561Z,5.77
2023-02-11T15:46:06.642Z,8.03
2023-02-11T15:52:01.077Z,9.87
2023-02-11T15:57:56.901Z,7.93
2023-02-11T16:03:51.796Z,19.20
2023-02-11T16:09:46.714Z,13.13
2023-02-11T16:15:46.645Z,16.07
2023-02-11T16:21:45.748Z,14.70
2023-02-11T16:27:43.099Z,13.00
2023-02-11T16:33:36.551Z,12.03
2023-02-11T16:39:30.158Z,14.83
2023-02-11T16:45:24.673Z,23.03
2023-02-11T16:51:17.715Z,13.97
2023-02-11T16:57:14.528Z,14.40
2023-02-11T17:03:10.567Z,13.40
2023-02-11T17:09:06.089Z,14.80
2023-02-11T17:14:59.200Z,13.20
2023-02-11T17:20:54.093Z,11.93
2023-02-11T17:26:47.787Z,14.73
2023-02-11T17:32:41.450Z,15.57
2023-02-11T17:38:37.055Z,16.03
2023-02-11T17:44:30.905Z,15.33
2023-02-11T17:50:24.484Z,15.13
2023-02-11T17:56:19.634Z,17.37
2023-02-11T18:02:13.738Z,16.60
2023-02-11T18:08:09.141Z,19.30
2023-02-11T18:14:05.555Z,19.87
2023-02-11T18:19:59.498Z,17.50
2023-02-11T18:25:52.768Z,23.20
2023-02-11T18:31:47.678Z,23.50
2023-02-11T18:37:41.721Z,19.50
2023-02-11T18:43:35.420Z,19.20
2023-02-11T18:49:29.831Z,24.50
2023-02-11T18:55:25.692Z,24.60
2023-02-11T19:01:23.202Z,20.77
2023-02-11T19:07:17.748Z,28.10
2023-02-11T19:13:11.426Z,27.63
2023-02-11T19:19:04.817Z,23.90
2023-02-11T19:24:59.322Z,22.03
2023-02-11T19:30:52.835Z,17.23
2023-02-11T19:36:45.952Z,28.03
2023-02-11T19:42:40.294Z,16.93
2023-02-11T19:48:33.582Z,20.50
2023-02-11T19:54:29.030Z,18.50
2023-02-11T20:00:24.196Z,20.00
2023-02-11T20:06:20.649Z,17.20
2023-02-11T20:12:13.707Z,16.20
2023-02-11T20:18:08.506Z,20.57
2023-02-11T20:24:01.968Z,16.40
2023-02-11T20:29:55.511Z,19.53
2023-02-11T20:35:57.729Z,22.00
2023-02-11T20:41:51.798Z,19.37
2023-02-11T20:47:45.223Z,19.17
2023-02-11T20:53:41.928Z,19.23
2023-02-11T20:59:34.904Z,17.10
2023-02-11T21:05:27.951Z,20.57
2023-02-11T21:11:22.284Z,18.67
2023-02-11T21:17:15.290Z,19.57
2023-02-11T21:23:08.253Z,16.60
2023-02-11T21:29:02.624Z,21.90
2023-02-11T21:34:56.094Z,28.00
2023-02-11T21:40:49.165Z,27.77
2023-02-11T21:46:43.658Z,22.20
2023-02-11T21:52:37.171Z,23.50
2023-02-11T21:58:30.762Z,32.07
2023-02-11T22:04:25.687Z,25.43
2023-02-11T22:10:18.974Z,28.70
2023-02-11T22:16:15.005Z,28.97
2023-02-11T22:22:09.830Z,31.80
2023-02-11T22:28:02.897Z,29.60
2023-02-11T22:33:56.054Z,29.70
2023-02-11T22:39:51.002Z,26.40
2023-02-11T22:45:44.008Z,22.50
2023-02-11T22:51:37.470Z,20.50
2023-02-11T22:57:32.245Z,20.70
2023-02-11T23:03:25.734Z,17.13
2023-02-11T23:09:19.270Z,19.60
2023-02-11T23:15:13.637Z,17.50
2023-02-11T23:21:11.393Z,14.47
2023-02-11T23:27:05.526Z,17.00
2023-02-11T23:33:00.270Z,15.20
2023-02-11T23:38:53.256Z,17.80
2023-02-11T23:44:46.213Z,16.80
2023-02-11T23:50:44.291Z,17.83
2023-02-11T23:56:42.685Z,14.90
